< < Back
Terminal Aerodrome Forecast


Current Version              Previous Versions:   1  2  3  4  5  6  7  8  9  

Terminal Aerodrome Forecast

395
FTUS44 KOHX 222300
TAFCSV
TAF
KCSV 222340Z 2300/2324 31010KT P6SM BKN035
     FM230900 35006KT P6SM SKC
     FM231500 03007KT P6SM SCT070=



Latest METAR

306
SAUS70 KWBC 231300 RRE
MTRCSV
METAR KCSV 231253Z AUTO 03009KT 10SM CLR 09/M01 A3004 RMK AO2 SLP163
T00891011


USA.gov is the U.S. government's official web portal to all federal, state and local government web resources and services.